sensor_id;sensor_type;location;lat;lon;timestamp;temperature;humidity
16801;DHT22;8518;53.236;10.384;2022-11-15T00:00:08;6.20;99.90
16801;DHT22;8518;53.236;10.384;2022-11-15T00:02:33;6.20;99.90
16801;DHT22;8518;53.236;10.384;2022-11-15T00:04:59;6.30;99.90
16801;DHT22;8518;53.236;10.384;2022-11-15T00:07:25;6.30;99.90
16801;DHT22;8518;53.236;10.384;2022-11-15T00:09:50;6.30;99.90
16801;DHT22;8518;53.236;10.384;2022-11-15T00:12:16;6.30;99.90
16801;DHT22;8518;53.236;10.384;2022-11-15T00:14:42;6.40;99.90
16801;DHT22;8518;53.236;10.384;2022-11-15T00:17:07;6.30;99.90
16801;DHT22;8518;53.236;10.384;2022-11-15T00:19:33;6.30;99.90
16801;DHT22;8518;53.236;10.384;2022-11-15T00:21:59;6.40;99.90
16801;DHT22;8518;53.236;10.384;2022-11-15T00:24:24;6.40;99.90
16801;DHT22;8518;53.236;10.384;2022-11-15T00:26:50;6.40;99.90
16801;DHT22;8518;53.236;10.384;2022-11-15T00:29:15;6.40;99.90
16801;DHT22;8518;53.236;10.384;2022-11-15T00:31:41;6.50;99.90
16801;DHT22;8518;53.236;10.384;2022-11-15T00:34:06;6.50;99.90
16801;DHT22;8518;53.236;10.384;2022-11-15T00:36:33;6.50;99.90
16801;DHT22;8518;53.236;10.384;2022-11-15T00:39:00;6.50;99.90
16801;DHT22;8518;53.236;10.384;2022-11-15T00:41:25;6.50;99.90
16801;DHT22;8518;53.236;10.384;2022-11-15T00:43:51;6.50;99.90
16801;DHT22;8518;53.236;10.384;2022-11-15T00:46:16;6.50;99.90
16801;DHT22;8518;53.236;10.384;2022-11-15T00:48:42;6.50;99.90
16801;DHT22;8518;53.236;10.384;2022-11-15T00:51:08;6.40;99.90
16801;DHT22;8518;53.236;10.384;2022-11-15T00:53:33;6.40;99.90
16801;DHT22;8518;53.236;10.384;2022-11-15T00:55:59;6.40;99.90
16801;DHT22;8518;53.236;10.384;2022-11-15T00:58:25;6.30;99.90
16801;DHT22;8518;53.236;10.384;2022-11-15T01:00:51;6.20;99.90
16801;DHT22;8518;53.236;10.384;2022-11-15T01:03:16;6.20;99.90
16801;DHT22;8518;53.236;10.384;2022-11-15T01:05:42;6.20;99.90
16801;DHT22;8518;53.236;10.384;2022-11-15T01:08:17;6.20;99.90
16801;DHT22;8518;53.236;10.384;2022-11-15T01:10:42;6.20;99.90
16801;DHT22;8518;53.236;10.384;2022-11-15T01:13:08;6.20;99.90
16801;DHT22;8518;53.236;10.384;2022-11-15T01:15:34;6.10;99.90
16801;DHT22;8518;53.236;10.384;2022-11-15T01:18:00;6.10;99.90
16801;DHT22;8518;53.236;10.384;2022-11-15T01:20:25;6.20;99.90
16801;DHT22;8518;53.236;10.384;2022-11-15T01:22:51;6.10;99.90
16801;DHT22;8518;53.236;10.384;2022-11-15T01:25:16;6.10;99.90
16801;DHT22;8518;53.236;10.384;2022-11-15T01:27:42;6.00;99.90
16801;DHT22;8518;53.236;10.384;2022-11-15T01:30:08;6.10;99.90
16801;DHT22;8518;53.236;10.384;2022-11-15T01:32:34;6.10;99.90
16801;DHT22;8518;53.236;10.384;2022-11-15T01:34:59;6.10;99.90
16801;DHT22;8518;53.236;10.384;2022-11-15T01:37:25;6.10;99.90
16801;DHT22;8518;53.236;10.384;2022-11-15T01:39:51;6.10;99.90
16801;DHT22;8518;53.236;10.384;2022-11-15T01:42:18;6.00;99.90
16801;DHT22;8518;53.236;10.384;2022-11-15T01:44:47;6.00;99.90
16801;DHT22;8518;53.236;10.384;2022-11-15T01:47:19;6.00;99.90
16801;DHT22;8518;53.236;10.384;2022-11-15T01:50:09;6.00;99.90
16801;DHT22;8518;53.236;10.384;2022-11-15T01:52:36;6.00;99.90
16801;DHT22;8518;53.236;10.384;2022-11-15T01:57:34;6.10;99.90
16801;DHT22;8518;53.236;10.384;2022-11-15T02:00:01;6.10;99.90
16801;DHT22;8518;53.236;10.384;2022-11-15T02:02:28;6.10;99.90
16801;DHT22;8518;53.236;10.384;2022-11-15T02:04:54;6.10;99.90
16801;DHT22;8518;53.236;10.384;2022-11-15T02:07:21;6.10;99.90
16801;DHT22;8518;53.236;10.384;2022-11-15T02:09:47;6.10;99.90
16801;DHT22;8518;53.236;10.384;2022-11-15T02:12:19;6.00;99.90
16801;DHT22;8518;53.236;10.384;2022-11-15T02:14:51;6.00;99.90
16801;DHT22;8518;53.236;10.384;2022-11-15T02:28:20;5.90;99.90
16801;DHT22;8518;53.236;10.384;2022-11-15T02:30:55;5.80;99.90
16801;DHT22;8518;53.236;10.384;2022-11-15T02:33:39;5.80;99.90
16801;DHT22;8518;53.236;10.384;2022-11-15T02:44:11;5.70;99.90
16801;DHT22;8518;53.236;10.384;2022-11-15T02:46:41;5.70;99.90
16801;DHT22;8518;53.236;10.384;2022-11-15T02:49:30;5.60;99.90
16801;DHT22;8518;53.236;10.384;2022-11-15T02:51:57;5.60;99.90
16801;DHT22;8518;53.236;10.384;2022-11-15T02:54:24;5.60;99.90
16801;DHT22;8518;53.236;10.384;2022-11-15T02:56:53;5.50;99.90
16801;DHT22;8518;53.236;10.384;2022-11-15T03:04:56;5.50;99.90
16801;DHT22;8518;53.236;10.384;2022-11-15T03:10:22;5.50;99.90
16801;DHT22;8518;53.236;10.384;2022-11-15T03:12:59;5.60;99.90
16801;DHT22;8518;53.236;10.384;2022-11-15T03:15:31;5.50;99.90
16801;DHT22;8518;53.236;10.384;2022-11-15T03:18:02;5.50;99.90
16801;DHT22;8518;53.236;10.384;2022-11-15T03:20:29;5.50;99.90
16801;DHT22;8518;53.236;10.384;2022-11-15T03:23:01;5.50;99.90
16801;DHT22;8518;53.236;10.384;2022-11-15T03:25:31;5.50;99.90
16801;DHT22;8518;53.236;10.384;2022-11-15T03:27:59;5.50;99.90
16801;DHT22;8518;53.236;10.384;2022-11-15T03:30:28;5.50;99.90
16801;DHT22;8518;53.236;10.384;2022-11-15T03:32:56;5.50;99.90
16801;DHT22;8518;53.236;10.384;2022-11-15T03:35:32;5.50;99.90
16801;DHT22;8518;53.236;10.384;2022-11-15T03:38:25;5.50;99.90
16801;DHT22;8518;53.236;10.384;2022-11-15T03:41:03;5.60;99.90
16801;DHT22;8518;53.236;10.384;2022-11-15T03:43:45;5.60;99.90
16801;DHT22;8518;53.236;10.384;2022-11-15T03:46:32;5.60;99.90
16801;DHT22;8518;53.236;10.384;2022-11-15T03:51:59;5.70;99.90
16801;DHT22;8518;53.236;10.384;2022-11-15T03:54:24;5.80;99.90
16801;DHT22;8518;53.236;10.384;2022-11-15T03:56:50;5.90;99.90
16801;DHT22;8518;53.236;10.384;2022-11-15T03:59:16;5.90;99.90
16801;DHT22;8518;53.236;10.384;2022-11-15T04:01:41;5.90;99.90
16801;DHT22;8518;53.236;10.384;2022-11-15T04:04:07;5.90;99.90
16801;DHT22;8518;53.236;10.384;2022-11-15T04:06:32;5.90;99.90
16801;DHT22;8518;53.236;10.384;2022-11-15T04:08:58;5.90;99.90
16801;DHT22;8518;53.236;10.384;2022-11-15T04:11:24;5.90;99.90
16801;DHT22;8518;53.236;10.384;2022-11-15T04:13:49;5.90;99.90
16801;DHT22;8518;53.236;10.384;2022-11-15T04:16:15;5.90;99.90
16801;DHT22;8518;53.236;10.384;2022-11-15T04:18:41;5.90;99.90
16801;DHT22;8518;53.236;10.384;2022-11-15T04:21:08;5.90;99.90
16801;DHT22;8518;53.236;10.384;2022-11-15T04:23:51;5.90;99.90
16801;DHT22;8518;53.236;10.384;2022-11-15T04:26:22;5.90;99.90
16801;DHT22;8518;53.236;10.384;2022-11-15T04:28:48;5.90;99.90
16801;DHT22;8518;53.236;10.384;2022-11-15T04:31:33;5.90;99.90
16801;DHT22;8518;53.236;10.384;2022-11-15T04:33:58;5.90;99.90
16801;DHT22;8518;53.236;10.384;2022-11-15T04:36:24;5.90;99.90
16801;DHT22;8518;53.236;10.384;2022-11-15T04:39:09;5.90;99.90
16801;DHT22;8518;53.236;10.384;2022-11-15T04:41:34;5.90;99.90
16801;DHT22;8518;53.236;10.384;2022-11-15T04:44:00;5.90;99.90
16801;DHT22;8518;53.236;10.384;2022-11-15T04:46:26;5.90;99.90
16801;DHT22;8518;53.236;10.384;2022-11-15T04:48:52;5.90;99.90
16801;DHT22;8518;53.236;10.384;2022-11-15T04:51:19;5.90;99.90
16801;DHT22;8518;53.236;10.384;2022-11-15T04:53:45;5.90;99.90
16801;DHT22;8518;53.236;10.384;2022-11-15T04:56:10;5.90;99.90
16801;DHT22;8518;53.236;10.384;2022-11-15T04:58:36;5.90;99.90
16801;DHT22;8518;53.236;10.384;2022-11-15T05:01:13;5.90;99.90
16801;DHT22;8518;53.236;10.384;2022-11-15T05:03:41;5.90;99.90
16801;DHT22;8518;53.236;10.384;2022-11-15T05:06:25;5.80;99.90
16801;DHT22;8518;53.236;10.384;2022-11-15T05:08:51;5.80;99.90
16801;DHT22;8518;53.236;10.384;2022-11-15T05:11:17;5.80;99.90
16801;DHT22;8518;53.236;10.384;2022-11-15T05:13:43;5.80;99.90
16801;DHT22;8518;53.236;10.384;2022-11-15T05:16:08;5.80;99.90
16801;DHT22;8518;53.236;10.384;2022-11-15T05:18:34;5.80;99.90
16801;DHT22;8518;53.236;10.384;2022-11-15T05:21:05;5.80;99.90
16801;DHT22;8518;53.236;10.384;2022-11-15T05:23:30;5.80;99.90
16801;DHT22;8518;53.236;10.384;2022-11-15T05:26:00;5.90;99.90
16801;DHT22;8518;53.236;10.384;2022-11-15T05:28:26;6.00;99.90
16801;DHT22;8518;53.236;10.384;2022-11-15T05:30:51;6.00;99.90
16801;DHT22;8518;53.236;10.384;2022-11-15T05:33:18;6.00;99.90
16801;DHT22;8518;53.236;10.384;2022-11-15T05:35:48;6.00;99.90
16801;DHT22;8518;53.236;10.384;2022-11-15T05:38:15;6.00;99.90
16801;DHT22;8518;53.236;10.384;2022-11-15T05:40:41;6.00;99.90
16801;DHT22;8518;53.236;10.384;2022-11-15T05:43:07;6.00;99.90
16801;DHT22;8518;53.236;10.384;2022-11-15T05:45:33;6.00;99.90
16801;DHT22;8518;53.236;10.384;2022-11-15T05:48:00;6.10;99.90
16801;DHT22;8518;53.236;10.384;2022-11-15T05:50:30;6.20;99.90
16801;DHT22;8518;53.236;10.384;2022-11-15T05:52:56;6.20;99.90
16801;DHT22;8518;53.236;10.384;2022-11-15T05:55:22;6.20;99.90
16801;DHT22;8518;53.236;10.384;2022-11-15T05:57:48;6.30;99.90
16801;DHT22;8518;53.236;10.384;2022-11-15T06:00:14;6.30;99.90
16801;DHT22;8518;53.236;10.384;2022-11-15T06:02:39;6.20;99.90
16801;DHT22;8518;53.236;10.384;2022-11-15T06:05:05;6.20;99.90
16801;DHT22;8518;53.236;10.384;2022-11-15T06:07:31;6.20;99.90
16801;DHT22;8518;53.236;10.384;2022-11-15T06:09:57;6.20;99.90
16801;DHT22;8518;53.236;10.384;2022-11-15T06:12:22;6.30;99.90
16801;DHT22;8518;53.236;10.384;2022-11-15T06:14:48;6.30;99.90
16801;DHT22;8518;53.236;10.384;2022-11-15T06:17:14;6.30;99.90
16801;DHT22;8518;53.236;10.384;2022-11-15T06:19:39;6.40;99.90
16801;DHT22;8518;53.236;10.384;2022-11-15T06:22:05;6.40;99.90
16801;DHT22;8518;53.236;10.384;2022-11-15T06:24:30;6.40;99.90
16801;DHT22;8518;53.236;10.384;2022-11-15T06:26:56;6.40;99.90
16801;DHT22;8518;53.236;10.384;2022-11-15T06:29:23;6.40;99.90
16801;DHT22;8518;53.236;10.384;2022-11-15T06:31:48;6.40;99.90
16801;DHT22;8518;53.236;10.384;2022-11-15T06:34:14;6.40;99.90
16801;DHT22;8518;53.236;10.384;2022-11-15T06:36:39;6.50;99.90
16801;DHT22;8518;53.236;10.384;2022-11-15T06:39:05;6.50;99.90
16801;DHT22;8518;53.236;10.384;2022-11-15T06:41:34;6.60;99.90
16801;DHT22;8518;53.236;10.384;2022-11-15T06:44:00;6.60;99.90
16801;DHT22;8518;53.236;10.384;2022-11-15T06:46:25;6.60;99.90
16801;DHT22;8518;53.236;10.384;2022-11-15T06:48:52;6.70;99.90
16801;DHT22;8518;53.236;10.384;2022-11-15T06:51:17;6.70;99.90
16801;DHT22;8518;53.236;10.384;2022-11-15T06:53:43;6.70;99.90
16801;DHT22;8518;53.236;10.384;2022-11-15T06:56:09;6.70;99.90
16801;DHT22;8518;53.236;10.384;2022-11-15T06:58:35;6.80;99.90
16801;DHT22;8518;53.236;10.384;2022-11-15T07:01:07;6.90;99.90
16801;DHT22;8518;53.236;10.384;2022-11-15T07:03:40;7.00;99.90
16801;DHT22;8518;53.236;10.384;2022-11-15T07:06:07;7.00;99.90
16801;DHT22;8518;53.236;10.384;2022-11-15T07:08:34;7.00;99.90
16801;DHT22;8518;53.236;10.384;2022-11-15T07:11:01;7.00;99.90
16801;DHT22;8518;53.236;10.384;2022-11-15T07:13:29;7.00;99.90
16801;DHT22;8518;53.236;10.384;2022-11-15T07:15:55;7.10;99.90
16801;DHT22;8518;53.236;10.384;2022-11-15T07:18:20;7.20;99.90
16801;DHT22;8518;53.236;10.384;2022-11-15T07:20:46;7.40;99.90
16801;DHT22;8518;53.236;10.384;2022-11-15T07:23:12;7.60;99.90
16801;DHT22;8518;53.236;10.384;2022-11-15T07:25:38;8.00;99.90
16801;DHT22;8518;53.236;10.384;2022-11-15T07:28:03;8.50;99.90
16801;DHT22;8518;53.236;10.384;2022-11-15T07:30:29;8.80;99.90
16801;DHT22;8518;53.236;10.384;2022-11-15T07:32:59;9.30;99.90
16801;DHT22;8518;53.236;10.384;2022-11-15T07:35:26;9.70;99.90
16801;DHT22;8518;53.236;10.384;2022-11-15T07:37:59;10.20;99.90
16801;DHT22;8518;53.236;10.384;2022-11-15T07:40:29;10.90;99.90
16801;DHT22;8518;53.236;10.384;2022-11-15T07:43:02;11.30;99.90
16801;DHT22;8518;53.236;10.384;2022-11-15T07:45:28;11.70;99.90
16801;DHT22;8518;53.236;10.384;2022-11-15T07:47:55;12.20;99.90
16801;DHT22;8518;53.236;10.384;2022-11-15T07:50:22;12.20;99.90
16801;DHT22;8518;53.236;10.384;2022-11-15T07:52:57;12.40;99.90
16801;DHT22;8518;53.236;10.384;2022-11-15T07:55:23;12.40;99.90
16801;DHT22;8518;53.236;10.384;2022-11-15T07:57:50;12.60;99.90
16801;DHT22;8518;53.236;10.384;2022-11-15T08:00:16;12.70;99.90
16801;DHT22;8518;53.236;10.384;2022-11-15T08:02:42;12.60;99.90
16801;DHT22;8518;53.236;10.384;2022-11-15T08:05:07;12.20;99.90
16801;DHT22;8518;53.236;10.384;2022-11-15T08:07:33;12.30;99.90
16801;DHT22;8518;53.236;10.384;2022-11-15T08:09:59;12.60;99.90
16801;DHT22;8518;53.236;10.384;2022-11-15T08:12:27;13.30;99.90
16801;DHT22;8518;53.236;10.384;2022-11-15T08:14:54;13.60;99.90
16801;DHT22;8518;53.236;10.384;2022-11-15T08:17:21;14.00;99.90
16801;DHT22;8518;53.236;10.384;2022-11-15T08:19:47;14.70;99.90
16801;DHT22;8518;53.236;10.384;2022-11-15T08:22:13;15.40;99.90
16801;DHT22;8518;53.236;10.384;2022-11-15T08:24:39;15.80;99.90
16801;DHT22;8518;53.236;10.384;2022-11-15T08:27:05;16.50;99.90
16801;DHT22;8518;53.236;10.384;2022-11-15T08:29:41;17.10;99.90
16801;DHT22;8518;53.236;10.384;2022-11-15T08:32:07;17.30;99.90
16801;DHT22;8518;53.236;10.384;2022-11-15T08:34:33;17.10;99.90
16801;DHT22;8518;53.236;10.384;2022-11-15T08:36:58;16.30;99.90
16801;DHT22;8518;53.236;10.384;2022-11-15T08:39:24;16.10;99.90
16801;DHT22;8518;53.236;10.384;2022-11-15T08:41:49;15.80;99.90
16801;DHT22;8518;53.236;10.384;2022-11-15T08:44:15;15.70;99.90
16801;DHT22;8518;53.236;10.384;2022-11-15T08:46:41;15.10;99.90
16801;DHT22;8518;53.236;10.384;2022-11-15T08:49:06;14.80;99.90
16801;DHT22;8518;53.236;10.384;2022-11-15T08:51:32;14.50;99.90
16801;DHT22;8518;53.236;10.384;2022-11-15T08:53:58;14.10;99.90
16801;DHT22;8518;53.236;10.384;2022-11-15T08:56:23;14.10;99.90
16801;DHT22;8518;53.236;10.384;2022-11-15T08:58:49;14.30;99.90
16801;DHT22;8518;53.236;10.384;2022-11-15T09:01:19;14.40;99.90
16801;DHT22;8518;53.236;10.384;2022-11-15T09:03:45;14.40;99.90
16801;DHT22;8518;53.236;10.384;2022-11-15T09:06:11;14.20;99.90
16801;DHT22;8518;53.236;10.384;2022-11-15T09:08:37;13.60;99.90
16801;DHT22;8518;53.236;10.384;2022-11-15T09:11:08;13.00;99.90
16801;DHT22;8518;53.236;10.384;2022-11-15T09:13:34;12.50;99.90
16801;DHT22;8518;53.236;10.384;2022-11-15T09:16:03;12.20;99.90
16801;DHT22;8518;53.236;10.384;2022-11-15T09:18:29;12.20;99.90
16801;DHT22;8518;53.236;10.384;2022-11-15T09:20:56;12.40;99.90
16801;DHT22;8518;53.236;10.384;2022-11-15T09:23:22;12.40;99.90
16801;DHT22;8518;53.236;10.384;2022-11-15T09:25:48;12.60;99.90
16801;DHT22;8518;53.236;10.384;2022-11-15T09:28:13;12.50;99.90
16801;DHT22;8518;53.236;10.384;2022-11-15T09:30:39;12.50;99.90
16801;DHT22;8518;53.236;10.384;2022-11-15T09:33:09;12.50;99.90
16801;DHT22;8518;53.236;10.384;2022-11-15T09:35:35;12.60;99.90
16801;DHT22;8518;53.236;10.384;2022-11-15T09:38:01;12.80;99.90
16801;DHT22;8518;53.236;10.384;2022-11-15T09:40:27;13.10;99.90
16801;DHT22;8518;53.236;10.384;2022-11-15T09:43:26;13.40;99.90
16801;DHT22;8518;53.236;10.384;2022-11-15T09:48:47;14.80;99.90
16801;DHT22;8518;53.236;10.384;2022-11-15T09:51:23;15.00;99.90
16801;DHT22;8518;53.236;10.384;2022-11-15T09:54:09;15.00;99.90
16801;DHT22;8518;53.236;10.384;2022-11-15T09:56:40;14.90;99.90
16801;DHT22;8518;53.236;10.384;2022-11-15T10:01:58;13.90;99.90
16801;DHT22;8518;53.236;10.384;2022-11-15T10:04:29;13.50;99.90
16801;DHT22;8518;53.236;10.384;2022-11-15T10:07:28;13.20;99.90
16801;DHT22;8518;53.236;10.384;2022-11-15T10:12:18;12.70;99.90
16801;DHT22;8518;53.236;10.384;2022-11-15T10:14:45;12.50;99.90
16801;DHT22;8518;53.236;10.384;2022-11-15T10:17:26;12.40;99.90
16801;DHT22;8518;53.236;10.384;2022-11-15T10:22:41;12.40;99.90
16801;DHT22;8518;53.236;10.384;2022-11-15T10:27:36;12.40;99.90
16801;DHT22;8518;53.236;10.384;2022-11-15T10:30:04;12.40;99.90
16801;DHT22;8518;53.236;10.384;2022-11-15T10:32:36;12.50;99.90
16801;DHT22;8518;53.236;10.384;2022-11-15T10:35:26;12.50;99.90
16801;DHT22;8518;53.236;10.384;2022-11-15T10:38:08;12.50;99.90
16801;DHT22;8518;53.236;10.384;2022-11-15T10:40:35;12.50;99.90
16801;DHT22;8518;53.236;10.384;2022-11-15T10:43:21;12.50;99.90
16801;DHT22;8518;53.236;10.384;2022-11-15T10:45:47;12.60;99.90
16801;DHT22;8518;53.236;10.384;2022-11-15T10:50:44;13.20;99.90
16801;DHT22;8518;53.236;10.384;2022-11-15T10:53:31;13.80;99.90
16801;DHT22;8518;53.236;10.384;2022-11-15T10:56:11;14.50;99.90
16801;DHT22;8518;53.236;10.384;2022-11-15T10:58:38;15.50;99.90
16801;DHT22;8518;53.236;10.384;2022-11-15T11:01:25;15.70;99.90
16801;DHT22;8518;53.236;10.384;2022-11-15T11:04:00;15.60;99.90
16801;DHT22;8518;53.236;10.384;2022-11-15T11:06:26;15.90;99.90
16801;DHT22;8518;53.236;10.384;2022-11-15T11:09:02;15.90;99.90
16801;DHT22;8518;53.236;10.384;2022-11-15T11:11:51;15.70;99.90
16801;DHT22;8518;53.236;10.384;2022-11-15T11:14:28;15.40;99.90
16801;DHT22;8518;53.236;10.384;2022-11-15T11:20:53;14.80;99.90
16801;DHT22;8518;53.236;10.384;2022-11-15T11:25:34;14.00;99.90
16801;DHT22;8518;53.236;10.384;2022-11-15T11:28:33;13.80;99.90
16801;DHT22;8518;53.236;10.384;2022-11-15T11:37:29;13.70;99.90
16801;DHT22;8518;53.236;10.384;2022-11-15T11:42:17;14.30;99.90
16801;DHT22;8518;53.236;10.384;2022-11-15T11:45:05;14.70;99.90
16801;DHT22;8518;53.236;10.384;2022-11-15T11:50:31;15.60;99.90
16801;DHT22;8518;53.236;10.384;2022-11-15T11:53:29;15.90;99.90
16801;DHT22;8518;53.236;10.384;2022-11-15T11:56:02;15.90;99.90
16801;DHT22;8518;53.236;10.384;2022-11-15T11:58:38;15.80;99.90
16801;DHT22;8518;53.236;10.384;2022-11-15T12:03:59;15.90;99.90
16801;DHT22;8518;53.236;10.384;2022-11-15T12:06:41;15.90;99.90
16801;DHT22;8518;53.236;10.384;2022-11-15T12:15:00;16.10;99.90
16801;DHT22;8518;53.236;10.384;2022-11-15T12:17:29;16.10;99.90
16801;DHT22;8518;53.236;10.384;2022-11-15T12:20:00;16.10;99.90
16801;DHT22;8518;53.236;10.384;2022-11-15T12:22:39;16.30;99.90
16801;DHT22;8518;53.236;10.384;2022-11-15T12:25:14;16.50;99.90
16801;DHT22;8518;53.236;10.384;2022-11-15T12:27:45;16.50;99.90
16801;DHT22;8518;53.236;10.384;2022-11-15T12:30:17;16.30;99.90
16801;DHT22;8518;53.236;10.384;2022-11-15T12:32:56;16.10;99.90
16801;DHT22;8518;53.236;10.384;2022-11-15T12:38:00;15.60;99.90
16801;DHT22;8518;53.236;10.384;2022-11-15T12:40:35;15.30;99.90
16801;DHT22;8518;53.236;10.384;2022-11-15T12:45:45;15.10;99.90
16801;DHT22;8518;53.236;10.384;2022-11-15T13:04:30;15.00;99.90
16801;DHT22;8518;53.236;10.384;2022-11-15T13:07:03;15.00;99.90
16801;DHT22;8518;53.236;10.384;2022-11-15T13:11:59;15.20;99.90
16801;DHT22;8518;53.236;10.384;2022-11-15T13:14:44;15.10;99.90
16801;DHT22;8518;53.236;10.384;2022-11-15T13:19:56;14.80;99.90
16801;DHT22;8518;53.236;10.384;2022-11-15T13:22:24;14.50;99.90
16801;DHT22;8518;53.236;10.384;2022-11-15T13:27:48;14.20;99.90
16801;DHT22;8518;53.236;10.384;2022-11-15T13:30:20;14.00;99.90
16801;DHT22;8518;53.236;10.384;2022-11-15T13:32:46;13.70;99.90
16801;DHT22;8518;53.236;10.384;2022-11-15T13:35:23;13.70;99.90
16801;DHT22;8518;53.236;10.384;2022-11-15T13:37:50;13.60;99.90
16801;DHT22;8518;53.236;10.384;2022-11-15T13:40:22;13.60;99.90
16801;DHT22;8518;53.236;10.384;2022-11-15T13:42:49;13.50;99.90
16801;DHT22;8518;53.236;10.384;2022-11-15T13:45:17;13.40;99.90
16801;DHT22;8518;53.236;10.384;2022-11-15T13:47:43;13.40;99.90
16801;DHT22;8518;53.236;10.384;2022-11-15T13:50:14;13.30;99.90
16801;DHT22;8518;53.236;10.384;2022-11-15T13:52:42;13.20;99.90
16801;DHT22;8518;53.236;10.384;2022-11-15T13:55:14;13.20;99.90
16801;DHT22;8518;53.236;10.384;2022-11-15T13:57:44;13.10;99.90
16801;DHT22;8518;53.236;10.384;2022-11-15T14:00:36;13.10;99.90
16801;DHT22;8518;53.236;10.384;2022-11-15T14:03:25;13.10;99.90
16801;DHT22;8518;53.236;10.384;2022-11-15T14:06:08;13.00;99.90
16801;DHT22;8518;53.236;10.384;2022-11-15T14:08:38;13.00;99.90
16801;DHT22;8518;53.236;10.384;2022-11-15T14:13:33;13.10;99.90
16801;DHT22;8518;53.236;10.384;2022-11-15T14:18:52;13.80;99.90
16801;DHT22;8518;53.236;10.384;2022-11-15T14:21:19;14.60;99.90
16801;DHT22;8518;53.236;10.384;2022-11-15T14:23:45;15.10;99.90
16801;DHT22;8518;53.236;10.384;2022-11-15T14:26:32;15.30;99.90
16801;DHT22;8518;53.236;10.384;2022-11-15T14:29:28;15.40;99.90
16801;DHT22;8518;53.236;10.384;2022-11-15T14:35:01;14.80;99.90
16801;DHT22;8518;53.236;10.384;2022-11-15T14:37:32;15.00;99.90
16801;DHT22;8518;53.236;10.384;2022-11-15T14:40:01;15.20;99.90
16801;DHT22;8518;53.236;10.384;2022-11-15T14:42:27;15.30;99.90
16801;DHT22;8518;53.236;10.384;2022-11-15T14:44:52;15.40;99.90
16801;DHT22;8518;53.236;10.384;2022-11-15T14:47:18;15.70;99.90
16801;DHT22;8518;53.236;10.384;2022-11-15T14:49:44;16.00;99.90
16801;DHT22;8518;53.236;10.384;2022-11-15T14:54:54;15.90;99.90
16801;DHT22;8518;53.236;10.384;2022-11-15T14:57:20;15.40;99.90
16801;DHT22;8518;53.236;10.384;2022-11-15T14:59:45;14.90;99.90
16801;DHT22;8518;53.236;10.384;2022-11-15T15:02:21;14.50;99.90
16801;DHT22;8518;53.236;10.384;2022-11-15T15:04:47;14.10;99.90
16801;DHT22;8518;53.236;10.384;2022-11-15T15:07:13;13.70;99.90
16801;DHT22;8518;53.236;10.384;2022-11-15T15:09:39;13.40;99.90
16801;DHT22;8518;53.236;10.384;2022-11-15T15:12:18;13.10;99.90
16801;DHT22;8518;53.236;10.384;2022-11-15T15:14:45;12.80;99.90
16801;DHT22;8518;53.236;10.384;2022-11-15T15:17:12;12.60;99.90
16801;DHT22;8518;53.236;10.384;2022-11-15T15:19:38;12.40;99.90
16801;DHT22;8518;53.236;10.384;2022-11-15T15:22:04;12.20;99.90
16801;DHT22;8518;53.236;10.384;2022-11-15T15:24:30;12.10;99.90
16801;DHT22;8518;53.236;10.384;2022-11-15T15:26:55;12.00;99.90
16801;DHT22;8518;53.236;10.384;2022-11-15T15:29:21;11.90;99.90
16801;DHT22;8518;53.236;10.384;2022-11-15T15:31:47;11.70;99.90
16801;DHT22;8518;53.236;10.384;2022-11-15T15:34:12;11.70;99.90
16801;DHT22;8518;53.236;10.384;2022-11-15T15:36:38;11.60;99.90
16801;DHT22;8518;53.236;10.384;2022-11-15T15:39:03;11.50;99.90
16801;DHT22;8518;53.236;10.384;2022-11-15T15:41:29;11.50;99.90
16801;DHT22;8518;53.236;10.384;2022-11-15T15:43:55;11.40;99.90
16801;DHT22;8518;53.236;10.384;2022-11-15T15:46:20;11.40;99.90
16801;DHT22;8518;53.236;10.384;2022-11-15T15:48:46;11.40;99.90
16801;DHT22;8518;53.236;10.384;2022-11-15T15:51:12;11.40;99.90
16801;DHT22;8518;53.236;10.384;2022-11-15T15:53:38;11.30;99.90
16801;DHT22;8518;53.236;10.384;2022-11-15T15:56:04;11.30;99.90
16801;DHT22;8518;53.236;10.384;2022-11-15T15:58:30;11.20;99.90
16801;DHT22;8518;53.236;10.384;2022-11-15T16:00:57;11.10;99.90
16801;DHT22;8518;53.236;10.384;2022-11-15T16:03:23;11.10;99.90
16801;DHT22;8518;53.236;10.384;2022-11-15T16:05:50;11.10;99.90
16801;DHT22;8518;53.236;10.384;2022-11-15T16:08:20;11.10;99.90
16801;DHT22;8518;53.236;10.384;2022-11-15T16:10:46;11.00;99.90
16801;DHT22;8518;53.236;10.384;2022-11-15T16:13:12;10.90;99.90
16801;DHT22;8518;53.236;10.384;2022-11-15T16:15:38;10.90;99.90
16801;DHT22;8518;53.236;10.384;2022-11-15T16:18:04;10.90;99.90
16801;DHT22;8518;53.236;10.384;2022-11-15T16:23:01;11.00;99.90
16801;DHT22;8518;53.236;10.384;2022-11-15T16:25:27;11.00;99.90
16801;DHT22;8518;53.236;10.384;2022-11-15T16:27:52;11.00;99.90
16801;DHT22;8518;53.236;10.384;2022-11-15T16:30:20;11.00;99.90
16801;DHT22;8518;53.236;10.384;2022-11-15T16:32:47;11.00;99.90
16801;DHT22;8518;53.236;10.384;2022-11-15T16:35:14;11.00;99.90
16801;DHT22;8518;53.236;10.384;2022-11-15T16:37:40;11.00;99.90
16801;DHT22;8518;53.236;10.384;2022-11-15T16:40:26;11.00;99.90
16801;DHT22;8518;53.236;10.384;2022-11-15T16:42:52;11.00;99.90
16801;DHT22;8518;53.236;10.384;2022-11-15T16:45:18;11.00;99.90
16801;DHT22;8518;53.236;10.384;2022-11-15T16:47:44;11.00;99.90
16801;DHT22;8518;53.236;10.384;2022-11-15T16:50:22;11.00;99.90
16801;DHT22;8518;53.236;10.384;2022-11-15T16:52:52;11.00;99.90
16801;DHT22;8518;53.236;10.384;2022-11-15T16:55:19;11.00;99.90
16801;DHT22;8518;53.236;10.384;2022-11-15T16:57:45;11.00;99.90
16801;DHT22;8518;53.236;10.384;2022-11-15T17:00:12;11.00;99.90
16801;DHT22;8518;53.236;10.384;2022-11-15T17:02:42;11.00;99.90
16801;DHT22;8518;53.236;10.384;2022-11-15T17:05:08;11.10;99.90
16801;DHT22;8518;53.236;10.384;2022-11-15T17:07:33;11.10;99.90
16801;DHT22;8518;53.236;10.384;2022-11-15T17:09:59;11.10;99.90
16801;DHT22;8518;53.236;10.384;2022-11-15T17:12:25;11.10;99.90
16801;DHT22;8518;53.236;10.384;2022-11-15T17:14:50;11.10;99.90
16801;DHT22;8518;53.236;10.384;2022-11-15T17:17:16;11.20;99.90
16801;DHT22;8518;53.236;10.384;2022-11-15T17:19:42;11.10;99.90
16801;DHT22;8518;53.236;10.384;2022-11-15T17:22:07;11.20;99.90
16801;DHT22;8518;53.236;10.384;2022-11-15T17:24:33;11.20;99.90
16801;DHT22;8518;53.236;10.384;2022-11-15T17:26:59;11.20;99.90
16801;DHT22;8518;53.236;10.384;2022-11-15T17:29:24;11.20;99.90
16801;DHT22;8518;53.236;10.384;2022-11-15T17:31:50;11.30;99.90
16801;DHT22;8518;53.236;10.384;2022-11-15T17:34:15;11.30;99.90
16801;DHT22;8518;53.236;10.384;2022-11-15T17:36:41;11.30;99.90
16801;DHT22;8518;53.236;10.384;2022-11-15T17:39:07;11.30;99.90
16801;DHT22;8518;53.236;10.384;2022-11-15T17:41:32;11.30;99.90
16801;DHT22;8518;53.236;10.384;2022-11-15T17:43:58;11.30;99.90
16801;DHT22;8518;53.236;10.384;2022-11-15T17:46:25;11.30;99.90